sensor_id;sensor_type;location;lat;lon;timestamp;temperature;humidity
26579;DHT22;14227;47.674;19.320;2022-07-01T00:01:28;32.30;29.50
26579;DHT22;14227;47.674;19.320;2022-07-01T00:03:54;32.30;29.40
26579;DHT22;14227;47.674;19.320;2022-07-01T00:06:20;32.30;29.20
26579;DHT22;14227;47.674;19.320;2022-07-01T00:08:46;32.20;29.50
26579;DHT22;14227;47.674;19.320;2022-07-01T00:11:13;32.20;29.50
26579;DHT22;14227;47.674;19.320;2022-07-01T00:13:38;32.20;29.60
26579;DHT22;14227;47.674;19.320;2022-07-01T00:16:04;32.10;29.50
26579;DHT22;14227;47.674;19.320;2022-07-01T00:18:30;32.10;29.80
26579;DHT22;14227;47.674;19.320;2022-07-01T00:20:56;32.10;29.80
26579;DHT22;14227;47.674;19.320;2022-07-01T00:23:22;32.00;29.70
26579;DHT22;14227;47.674;19.320;2022-07-01T00:25:47;32.00;29.60
26579;DHT22;14227;47.674;19.320;2022-07-01T00:28:13;31.90;29.30
26579;DHT22;14227;47.674;19.320;2022-07-01T00:30:39;31.90;30.00
26579;DHT22;14227;47.674;19.320;2022-07-01T00:33:05;31.90;30.20
26579;DHT22;14227;47.674;19.320;2022-07-01T00:35:30;31.90;30.20
26579;DHT22;14227;47.674;19.320;2022-07-01T00:37:57;31.80;30.00
26579;DHT22;14227;47.674;19.320;2022-07-01T00:40:23;31.80;30.30
26579;DHT22;14227;47.674;19.320;2022-07-01T00:42:49;31.70;30.00
26579;DHT22;14227;47.674;19.320;2022-07-01T00:45:15;31.70;30.50
26579;DHT22;14227;47.674;19.320;2022-07-01T00:47:42;31.70;31.20
26579;DHT22;14227;47.674;19.320;2022-07-01T00:50:10;31.60;30.40
26579;DHT22;14227;47.674;19.320;2022-07-01T00:52:35;31.60;30.40
26579;DHT22;14227;47.674;19.320;2022-07-01T00:55:11;31.60;30.60
26579;DHT22;14227;47.674;19.320;2022-07-01T00:57:37;31.50;30.60
26579;DHT22;14227;47.674;19.320;2022-07-01T01:00:09;31.50;31.30
26579;DHT22;14227;47.674;19.320;2022-07-01T01:02:36;31.50;30.60
26579;DHT22;14227;47.674;19.320;2022-07-01T01:05:03;31.40;30.50
26579;DHT22;14227;47.674;19.320;2022-07-01T01:07:31;31.40;30.50
26579;DHT22;14227;47.674;19.320;2022-07-01T01:09:58;31.40;30.50
26579;DHT22;14227;47.674;19.320;2022-07-01T01:12:25;31.30;30.50
26579;DHT22;14227;47.674;19.320;2022-07-01T01:14:52;31.30;30.50
26579;DHT22;14227;47.674;19.320;2022-07-01T01:17:18;31.20;30.40
26579;DHT22;14227;47.674;19.320;2022-07-01T01:19:44;31.20;30.40
26579;DHT22;14227;47.674;19.320;2022-07-01T01:22:11;31.20;30.40
26579;DHT22;14227;47.674;19.320;2022-07-01T01:24:40;31.10;30.30
26579;DHT22;14227;47.674;19.320;2022-07-01T01:27:06;31.10;30.30
26579;DHT22;14227;47.674;19.320;2022-07-01T01:29:33;31.10;30.30
26579;DHT22;14227;47.674;19.320;2022-07-01T01:32:00;31.10;30.30
26579;DHT22;14227;47.674;19.320;2022-07-01T01:34:26;31.00;30.30
26579;DHT22;14227;47.674;19.320;2022-07-01T01:36:52;31.00;30.20
26579;DHT22;14227;47.674;19.320;2022-07-01T01:39:18;31.00;30.50
26579;DHT22;14227;47.674;19.320;2022-07-01T01:41:44;31.00;30.30
26579;DHT22;14227;47.674;19.320;2022-07-01T01:44:10;30.90;30.20
26579;DHT22;14227;47.674;19.320;2022-07-01T01:46:36;30.90;31.00
26579;DHT22;14227;47.674;19.320;2022-07-01T01:49:04;30.90;30.70
26579;DHT22;14227;47.674;19.320;2022-07-01T01:51:29;30.90;30.30
26579;DHT22;14227;47.674;19.320;2022-07-01T01:53:55;30.80;30.70
26579;DHT22;14227;47.674;19.320;2022-07-01T01:56:22;30.80;30.50
26579;DHT22;14227;47.674;19.320;2022-07-01T01:58:48;30.70;30.50
26579;DHT22;14227;47.674;19.320;2022-07-01T02:01:16;30.70;30.50
26579;DHT22;14227;47.674;19.320;2022-07-01T02:03:43;30.70;30.90
26579;DHT22;14227;47.674;19.320;2022-07-01T02:06:09;30.70;30.80
26579;DHT22;14227;47.674;19.320;2022-07-01T02:08:38;30.60;30.50
26579;DHT22;14227;47.674;19.320;2022-07-01T02:11:05;30.60;30.60
26579;DHT22;14227;47.674;19.320;2022-07-01T02:13:30;30.60;30.90
26579;DHT22;14227;47.674;19.320;2022-07-01T02:15:56;30.60;31.30
26579;DHT22;14227;47.674;19.320;2022-07-01T02:18:23;30.50;31.20
26579;DHT22;14227;47.674;19.320;2022-07-01T02:20:48;30.50;30.80
26579;DHT22;14227;47.674;19.320;2022-07-01T02:23:14;30.50;30.80
26579;DHT22;14227;47.674;19.320;2022-07-01T02:25:40;30.50;30.80
26579;DHT22;14227;47.674;19.320;2022-07-01T02:28:06;30.40;30.90
26579;DHT22;14227;47.674;19.320;2022-07-01T02:30:33;30.40;30.80
26579;DHT22;14227;47.674;19.320;2022-07-01T02:33:05;30.40;31.10
26579;DHT22;14227;47.674;19.320;2022-07-01T02:35:32;30.30;30.90
26579;DHT22;14227;47.674;19.320;2022-07-01T02:37:58;30.30;31.20
26579;DHT22;14227;47.674;19.320;2022-07-01T02:40:24;30.30;31.80
26579;DHT22;14227;47.674;19.320;2022-07-01T02:42:49;30.20;31.30
26579;DHT22;14227;47.674;19.320;2022-07-01T02:45:15;30.20;31.80
26579;DHT22;14227;47.674;19.320;2022-07-01T02:47:41;30.10;31.50
26579;DHT22;14227;47.674;19.320;2022-07-01T02:50:09;30.10;32.00
26579;DHT22;14227;47.674;19.320;2022-07-01T02:52:36;30.10;31.50
26579;DHT22;14227;47.674;19.320;2022-07-01T02:55:04;30.00;31.40
26579;DHT22;14227;47.674;19.320;2022-07-01T02:57:31;30.00;31.50
26579;DHT22;14227;47.674;19.320;2022-07-01T02:59:57;30.00;31.60
26579;DHT22;14227;47.674;19.320;2022-07-01T03:02:23;30.00;31.60
26579;DHT22;14227;47.674;19.320;2022-07-01T03:04:49;29.90;32.10
26579;DHT22;14227;47.674;19.320;2022-07-01T03:07:16;29.90;31.80
26579;DHT22;14227;47.674;19.320;2022-07-01T03:09:42;29.90;31.70
26579;DHT22;14227;47.674;19.320;2022-07-01T03:12:10;29.90;31.60
26579;DHT22;14227;47.674;19.320;2022-07-01T03:14:52;29.80;31.50
26579;DHT22;14227;47.674;19.320;2022-07-01T03:17:18;29.70;31.70
26579;DHT22;14227;47.674;19.320;2022-07-01T03:19:45;29.70;31.60
26579;DHT22;14227;47.674;19.320;2022-07-01T03:22:11;29.70;32.90
26579;DHT22;14227;47.674;19.320;2022-07-01T03:24:37;29.70;32.10
26579;DHT22;14227;47.674;19.320;2022-07-01T03:27:03;29.70;32.10
26579;DHT22;14227;47.674;19.320;2022-07-01T03:29:28;29.60;31.90
26579;DHT22;14227;47.674;19.320;2022-07-01T03:31:55;29.60;32.00
26579;DHT22;14227;47.674;19.320;2022-07-01T03:34:20;29.60;31.90
26579;DHT22;14227;47.674;19.320;2022-07-01T03:36:46;29.60;31.80
26579;DHT22;14227;47.674;19.320;2022-07-01T03:39:12;29.60;32.20
26579;DHT22;14227;47.674;19.320;2022-07-01T03:41:38;29.60;32.50
26579;DHT22;14227;47.674;19.320;2022-07-01T03:44:03;29.50;32.60
26579;DHT22;14227;47.674;19.320;2022-07-01T03:46:29;29.50;32.90
26579;DHT22;14227;47.674;19.320;2022-07-01T03:48:59;29.50;32.50
26579;DHT22;14227;47.674;19.320;2022-07-01T03:51:25;29.50;32.40
26579;DHT22;14227;47.674;19.320;2022-07-01T03:53:50;29.40;32.60
26579;DHT22;14227;47.674;19.320;2022-07-01T03:56:35;29.40;32.80
26579;DHT22;14227;47.674;19.320;2022-07-01T03:59:00;29.40;33.00
26579;DHT22;14227;47.674;19.320;2022-07-01T04:01:26;29.30;32.60
26579;DHT22;14227;47.674;19.320;2022-07-01T04:03:51;29.20;32.60
26579;DHT22;14227;47.674;19.320;2022-07-01T04:06:17;29.20;33.10
26579;DHT22;14227;47.674;19.320;2022-07-01T04:08:44;29.20;34.00
26579;DHT22;14227;47.674;19.320;2022-07-01T04:11:10;29.20;33.90
26579;DHT22;14227;47.674;19.320;2022-07-01T04:13:36;29.20;33.30
26579;DHT22;14227;47.674;19.320;2022-07-01T04:16:05;29.20;33.40
26579;DHT22;14227;47.674;19.320;2022-07-01T04:18:31;29.20;33.40
26579;DHT22;14227;47.674;19.320;2022-07-01T04:20:58;29.20;32.90
26579;DHT22;14227;47.674;19.320;2022-07-01T04:23:42;29.20;32.90
26579;DHT22;14227;47.674;19.320;2022-07-01T04:26:08;29.20;34.00
26579;DHT22;14227;47.674;19.320;2022-07-01T04:28:34;29.20;33.30
26579;DHT22;14227;47.674;19.320;2022-07-01T04:31:00;29.10;33.00
26579;DHT22;14227;47.674;19.320;2022-07-01T04:33:26;29.10;34.30
26579;DHT22;14227;47.674;19.320;2022-07-01T04:35:51;29.10;34.90
26579;DHT22;14227;47.674;19.320;2022-07-01T04:38:17;29.10;35.10
26579;DHT22;14227;47.674;19.320;2022-07-01T04:40:43;29.10;35.40
26579;DHT22;14227;47.674;19.320;2022-07-01T04:43:28;29.00;34.70
26579;DHT22;14227;47.674;19.320;2022-07-01T04:45:54;29.00;36.20
26579;DHT22;14227;47.674;19.320;2022-07-01T04:48:20;29.00;36.30
26579;DHT22;14227;47.674;19.320;2022-07-01T04:50:46;29.00;35.60
26579;DHT22;14227;47.674;19.320;2022-07-01T04:53:13;29.00;34.70
26579;DHT22;14227;47.674;19.320;2022-07-01T04:55:39;29.00;34.70
26579;DHT22;14227;47.674;19.320;2022-07-01T04:58:04;29.00;34.50
26579;DHT22;14227;47.674;19.320;2022-07-01T05:00:30;29.00;34.20
26579;DHT22;14227;47.674;19.320;2022-07-01T05:02:56;29.00;34.30
26579;DHT22;14227;47.674;19.320;2022-07-01T05:05:22;29.00;36.20
26579;DHT22;14227;47.674;19.320;2022-07-01T05:07:47;29.00;37.20
26579;DHT22;14227;47.674;19.320;2022-07-01T05:10:13;29.00;37.90
26579;DHT22;14227;47.674;19.320;2022-07-01T05:12:39;29.00;38.60
26579;DHT22;14227;47.674;19.320;2022-07-01T05:15:05;28.90;39.10
26579;DHT22;14227;47.674;19.320;2022-07-01T05:17:33;28.90;39.70
26579;DHT22;14227;47.674;19.320;2022-07-01T05:20:17;28.90;39.50
26579;DHT22;14227;47.674;19.320;2022-07-01T05:23:18;28.80;40.00
26579;DHT22;14227;47.674;19.320;2022-07-01T05:25:43;28.80;39.70
26579;DHT22;14227;47.674;19.320;2022-07-01T05:28:09;28.80;39.10
26579;DHT22;14227;47.674;19.320;2022-07-01T05:30:34;28.90;38.60
26579;DHT22;14227;47.674;19.320;2022-07-01T05:33:00;28.90;37.70
26579;DHT22;14227;47.674;19.320;2022-07-01T05:35:26;29.00;38.10
26579;DHT22;14227;47.674;19.320;2022-07-01T05:37:51;29.00;37.40
26579;DHT22;14227;47.674;19.320;2022-07-01T05:40:17;29.00;37.70
26579;DHT22;14227;47.674;19.320;2022-07-01T05:42:42;29.10;37.30
26579;DHT22;14227;47.674;19.320;2022-07-01T05:45:08;29.10;37.60
26579;DHT22;14227;47.674;19.320;2022-07-01T05:47:34;29.20;38.20
26579;DHT22;14227;47.674;19.320;2022-07-01T05:50:00;29.20;38.40
26579;DHT22;14227;47.674;19.320;2022-07-01T05:52:27;29.20;38.50
26579;DHT22;14227;47.674;19.320;2022-07-01T05:54:53;29.20;38.70
26579;DHT22;14227;47.674;19.320;2022-07-01T05:57:19;29.30;38.30
26579;DHT22;14227;47.674;19.320;2022-07-01T05:59:45;29.30;37.50
26579;DHT22;14227;47.674;19.320;2022-07-01T06:02:10;29.40;37.60
26579;DHT22;14227;47.674;19.320;2022-07-01T06:04:36;29.40;37.10
26579;DHT22;14227;47.674;19.320;2022-07-01T06:07:02;29.50;37.00
26579;DHT22;14227;47.674;19.320;2022-07-01T06:09:27;29.50;36.90
26579;DHT22;14227;47.674;19.320;2022-07-01T06:11:53;29.50;37.40
26579;DHT22;14227;47.674;19.320;2022-07-01T06:14:19;29.60;37.10
26579;DHT22;14227;47.674;19.320;2022-07-01T06:16:44;29.60;37.30
26579;DHT22;14227;47.674;19.320;2022-07-01T06:19:10;29.70;37.20
26579;DHT22;14227;47.674;19.320;2022-07-01T06:21:36;29.80;36.70
26579;DHT22;14227;47.674;19.320;2022-07-01T06:24:02;29.80;36.70
26579;DHT22;14227;47.674;19.320;2022-07-01T06:26:27;29.90;37.60
26579;DHT22;14227;47.674;19.320;2022-07-01T06:28:53;29.90;37.80
26579;DHT22;14227;47.674;19.320;2022-07-01T06:31:19;30.00;37.70
26579;DHT22;14227;47.674;19.320;2022-07-01T06:33:44;30.00;38.00
26579;DHT22;14227;47.674;19.320;2022-07-01T06:36:10;30.10;37.30
26579;DHT22;14227;47.674;19.320;2022-07-01T06:38:36;30.20;37.70
26579;DHT22;14227;47.674;19.320;2022-07-01T06:41:01;30.20;38.30
26579;DHT22;14227;47.674;19.320;2022-07-01T06:43:45;30.30;36.90
26579;DHT22;14227;47.674;19.320;2022-07-01T06:46:11;30.30;36.50
26579;DHT22;14227;47.674;19.320;2022-07-01T06:48:36;30.40;35.80
26579;DHT22;14227;47.674;19.320;2022-07-01T06:51:02;30.50;35.90
26579;DHT22;14227;47.674;19.320;2022-07-01T06:53:28;30.50;35.80
26579;DHT22;14227;47.674;19.320;2022-07-01T06:55:54;30.50;36.20
26579;DHT22;14227;47.674;19.320;2022-07-01T06:58:20;30.60;36.40
26579;DHT22;14227;47.674;19.320;2022-07-01T07:00:45;30.60;36.30
26579;DHT22;14227;47.674;19.320;2022-07-01T07:03:11;30.60;36.60
26579;DHT22;14227;47.674;19.320;2022-07-01T07:05:37;30.70;36.30
26579;DHT22;14227;47.674;19.320;2022-07-01T07:08:03;30.70;36.90
26579;DHT22;14227;47.674;19.320;2022-07-01T07:10:29;30.80;36.90
26579;DHT22;14227;47.674;19.320;2022-07-01T07:12:55;30.80;36.70
26579;DHT22;14227;47.674;19.320;2022-07-01T07:15:21;30.90;36.20
26579;DHT22;14227;47.674;19.320;2022-07-01T07:17:46;31.00;37.00
26579;DHT22;14227;47.674;19.320;2022-07-01T07:20:12;31.10;37.00
26579;DHT22;14227;47.674;19.320;2022-07-01T07:22:38;31.20;36.30
26579;DHT22;14227;47.674;19.320;2022-07-01T07:25:04;31.20;35.20
26579;DHT22;14227;47.674;19.320;2022-07-01T07:27:29;31.20;35.40
26579;DHT22;14227;47.674;19.320;2022-07-01T07:29:55;31.30;35.00
26579;DHT22;14227;47.674;19.320;2022-07-01T07:32:23;31.30;35.00
26579;DHT22;14227;47.674;19.320;2022-07-01T07:34:49;31.30;35.50
26579;DHT22;14227;47.674;19.320;2022-07-01T07:37:18;31.40;35.10
26579;DHT22;14227;47.674;19.320;2022-07-01T07:39:43;31.50;35.10
26579;DHT22;14227;47.674;19.320;2022-07-01T07:42:09;31.60;34.70
26579;DHT22;14227;47.674;19.320;2022-07-01T07:50:15;31.80;34.40
26579;DHT22;14227;47.674;19.320;2022-07-01T08:08:24;32.20;33.10
26579;DHT22;14227;47.674;19.320;2022-07-01T08:59:28;33.70;29.90
26579;DHT22;14227;47.674;19.320;2022-07-01T09:01:59;33.70;29.80
26579;DHT22;14227;47.674;19.320;2022-07-01T09:04:25;33.70;29.50
26579;DHT22;14227;47.674;19.320;2022-07-01T09:06:53;33.80;29.50
26579;DHT22;14227;47.674;19.320;2022-07-01T09:09:22;33.90;29.00
26579;DHT22;14227;47.674;19.320;2022-07-01T09:11:52;33.90;29.00
26579;DHT22;14227;47.674;19.320;2022-07-01T09:14:22;34.00;29.20
26579;DHT22;14227;47.674;19.320;2022-07-01T09:16:50;34.00;28.60
26579;DHT22;14227;47.674;19.320;2022-07-01T09:19:19;34.10;28.20
26579;DHT22;14227;47.674;19.320;2022-07-01T09:21:54;34.20;28.50
26579;DHT22;14227;47.674;19.320;2022-07-01T09:24:29;34.30;28.90
26579;DHT22;14227;47.674;19.320;2022-07-01T09:29:38;34.40;28.30
26579;DHT22;14227;47.674;19.320;2022-07-01T09:32:09;34.50;28.00
26579;DHT22;14227;47.674;19.320;2022-07-01T09:34:55;34.50;27.60
26579;DHT22;14227;47.674;19.320;2022-07-01T09:37:22;34.60;27.60
26579;DHT22;14227;47.674;19.320;2022-07-01T09:39:53;34.70;26.70
26579;DHT22;14227;47.674;19.320;2022-07-01T09:42:21;34.80;26.30
26579;DHT22;14227;47.674;19.320;2022-07-01T09:45:06;34.90;25.70
26579;DHT22;14227;47.674;19.320;2022-07-01T09:47:38;35.00;26.00
26579;DHT22;14227;47.674;19.320;2022-07-01T09:50:07;35.10;26.00
26579;DHT22;14227;47.674;19.320;2022-07-01T09:52:33;35.20;26.10
26579;DHT22;14227;47.674;19.320;2022-07-01T09:55:03;35.30;25.80
26579;DHT22;14227;47.674;19.320;2022-07-01T09:57:29;35.40;25.50
26579;DHT22;14227;47.674;19.320;2022-07-01T09:59:54;35.40;25.40
26579;DHT22;14227;47.674;19.320;2022-07-01T10:02:21;35.50;25.60
26579;DHT22;14227;47.674;19.320;2022-07-01T10:05:00;35.60;25.70
26579;DHT22;14227;47.674;19.320;2022-07-01T10:07:36;35.70;25.00
26579;DHT22;14227;47.674;19.320;2022-07-01T10:13:17;35.80;25.10
26579;DHT22;14227;47.674;19.320;2022-07-01T10:15:44;35.80;25.10
26579;DHT22;14227;47.674;19.320;2022-07-01T10:18:25;35.90;25.00
26579;DHT22;14227;47.674;19.320;2022-07-01T10:20:52;35.90;25.10
26579;DHT22;14227;47.674;19.320;2022-07-01T10:23:23;36.00;25.40
26579;DHT22;14227;47.674;19.320;2022-07-01T10:25:51;36.00;25.50
26579;DHT22;14227;47.674;19.320;2022-07-01T10:31:08;36.20;25.70
26579;DHT22;14227;47.674;19.320;2022-07-01T10:33:50;36.20;25.90
26579;DHT22;14227;47.674;19.320;2022-07-01T10:41:30;36.40;25.00
26579;DHT22;14227;47.674;19.320;2022-07-01T10:43:57;36.40;24.30
26579;DHT22;14227;47.674;19.320;2022-07-01T10:46:46;36.50;25.10
26579;DHT22;14227;47.674;19.320;2022-07-01T10:49:13;36.50;24.80
26579;DHT22;14227;47.674;19.320;2022-07-01T10:51:49;36.60;24.30
26579;DHT22;14227;47.674;19.320;2022-07-01T10:59:46;36.60;24.20
26579;DHT22;14227;47.674;19.320;2022-07-01T11:02:24;36.70;24.10
26579;DHT22;14227;47.674;19.320;2022-07-01T11:04:53;36.80;24.20
26579;DHT22;14227;47.674;19.320;2022-07-01T11:07:19;36.80;24.10
26579;DHT22;14227;47.674;19.320;2022-07-01T11:09:45;36.80;24.10
26579;DHT22;14227;47.674;19.320;2022-07-01T11:12:11;36.90;24.20
26579;DHT22;14227;47.674;19.320;2022-07-01T11:14:40;36.90;24.20
26579;DHT22;14227;47.674;19.320;2022-07-01T11:17:08;37.00;24.00
26579;DHT22;14227;47.674;19.320;2022-07-01T11:19:34;37.00;24.20
26579;DHT22;14227;47.674;19.320;2022-07-01T11:22:00;37.00;23.90
26579;DHT22;14227;47.674;19.320;2022-07-01T11:24:28;37.00;24.80
26579;DHT22;14227;47.674;19.320;2022-07-01T11:26:59;37.00;23.50
26579;DHT22;14227;47.674;19.320;2022-07-01T11:29:27;37.00;23.20
26579;DHT22;14227;47.674;19.320;2022-07-01T11:31:52;37.10;23.20
26579;DHT22;14227;47.674;19.320;2022-07-01T11:34:18;37.10;23.30
26579;DHT22;14227;47.674;19.320;2022-07-01T11:36:45;37.10;23.40
26579;DHT22;14227;47.674;19.320;2022-07-01T11:39:41;37.10;22.60
26579;DHT22;14227;47.674;19.320;2022-07-01T11:42:10;37.10;23.20
26579;DHT22;14227;47.674;19.320;2022-07-01T11:44:42;37.10;22.50
26579;DHT22;14227;47.674;19.320;2022-07-01T11:47:10;37.20;22.80
26579;DHT22;14227;47.674;19.320;2022-07-01T11:49:44;37.20;21.70
26579;DHT22;14227;47.674;19.320;2022-07-01T11:52:10;37.20;21.50
26579;DHT22;14227;47.674;19.320;2022-07-01T11:54:40;37.30;21.40
26579;DHT22;14227;47.674;19.320;2022-07-01T11:57:15;37.40;22.00
26579;DHT22;14227;47.674;19.320;2022-07-01T11:59:42;37.50;21.90
26579;DHT22;14227;47.674;19.320;2022-07-01T12:02:10;37.50;21.10
26579;DHT22;14227;47.674;19.320;2022-07-01T12:04:37;37.60;21.40
26579;DHT22;14227;47.674;19.320;2022-07-01T12:07:11;37.60;20.50
26579;DHT22;14227;47.674;19.320;2022-07-01T12:09:38;37.60;21.30
26579;DHT22;14227;47.674;19.320;2022-07-01T12:12:04;37.60;21.20
26579;DHT22;14227;47.674;19.320;2022-07-01T12:14:33;37.60;21.00
26579;DHT22;14227;47.674;19.320;2022-07-01T12:17:02;37.60;20.70
26579;DHT22;14227;47.674;19.320;2022-07-01T12:19:45;37.60;20.50
26579;DHT22;14227;47.674;19.320;2022-07-01T12:22:32;37.70;20.20
26579;DHT22;14227;47.674;19.320;2022-07-01T12:25:10;37.70;20.10
26579;DHT22;14227;47.674;19.320;2022-07-01T12:27:37;37.70;19.90
26579;DHT22;14227;47.674;19.320;2022-07-01T12:30:06;37.70;20.20
26579;DHT22;14227;47.674;19.320;2022-07-01T12:32:35;37.80;20.40
26579;DHT22;14227;47.674;19.320;2022-07-01T12:35:11;37.80;20.60
26579;DHT22;14227;47.674;19.320;2022-07-01T12:37:55;37.70;20.10
26579;DHT22;14227;47.674;19.320;2022-07-01T12:40:25;37.80;20.10
26579;DHT22;14227;47.674;19.320;2022-07-01T12:42:54;37.80;19.90
26579;DHT22;14227;47.674;19.320;2022-07-01T12:45:24;37.90;20.00
26579;DHT22;14227;47.674;19.320;2022-07-01T12:47:55;37.90;20.00
26579;DHT22;14227;47.674;19.320;2022-07-01T12:50:27;37.90;20.00
26579;DHT22;14227;47.674;19.320;2022-07-01T12:55:41;38.00;20.30
26579;DHT22;14227;47.674;19.320;2022-07-01T12:58:15;38.10;20.00
26579;DHT22;14227;47.674;19.320;2022-07-01T13:00:44;38.10;20.10
26579;DHT22;14227;47.674;19.320;2022-07-01T13:03:10;38.10;19.80
26579;DHT22;14227;47.674;19.320;2022-07-01T13:05:38;38.20;19.30
26579;DHT22;14227;47.674;19.320;2022-07-01T13:08:05;38.30;19.90
26579;DHT22;14227;47.674;19.320;2022-07-01T13:10:30;38.30;20.20
26579;DHT22;14227;47.674;19.320;2022-07-01T13:12:56;38.30;20.20
26579;DHT22;14227;47.674;19.320;2022-07-01T13:15:22;38.20;19.80
26579;DHT22;14227;47.674;19.320;2022-07-01T13:17:48;38.30;19.70
26579;DHT22;14227;47.674;19.320;2022-07-01T13:20:15;38.30;19.50
26579;DHT22;14227;47.674;19.320;2022-07-01T13:22:42;38.40;20.20
26579;DHT22;14227;47.674;19.320;2022-07-01T13:25:08;38.30;19.60
26579;DHT22;14227;47.674;19.320;2022-07-01T13:27:35;38.40;19.30
26579;DHT22;14227;47.674;19.320;2022-07-01T13:30:01;38.30;19.30
26579;DHT22;14227;47.674;19.320;2022-07-01T13:32:29;38.40;19.60
26579;DHT22;14227;47.674;19.320;2022-07-01T13:34:55;38.50;19.40
26579;DHT22;14227;47.674;19.320;2022-07-01T13:37:24;38.40;19.50
26579;DHT22;14227;47.674;19.320;2022-07-01T13:39:52;38.50;18.70
26579;DHT22;14227;47.674;19.320;2022-07-01T13:42:18;38.50;18.50
26579;DHT22;14227;47.674;19.320;2022-07-01T13:44:44;38.50;19.20
26579;DHT22;14227;47.674;19.320;2022-07-01T13:47:09;38.50;18.50
26579;DHT22;14227;47.674;19.320;2022-07-01T13:49:38;38.50;18.70
26579;DHT22;14227;47.674;19.320;2022-07-01T13:52:07;38.60;18.50
26579;DHT22;14227;47.674;19.320;2022-07-01T13:54:33;38.50;18.10
26579;DHT22;14227;47.674;19.320;2022-07-01T13:56:59;38.60;18.00
26579;DHT22;14227;47.674;19.320;2022-07-01T13:59:25;38.60;18.60
26579;DHT22;14227;47.674;19.320;2022-07-01T14:01:51;38.70;18.50
26579;DHT22;14227;47.674;19.320;2022-07-01T14:04:17;38.70;18.40
26579;DHT22;14227;47.674;19.320;2022-07-01T14:06:43;38.70;18.60
26579;DHT22;14227;47.674;19.320;2022-07-01T14:09:08;38.70;18.80
26579;DHT22;14227;47.674;19.320;2022-07-01T14:11:34;38.70;18.70
26579;DHT22;14227;47.674;19.320;2022-07-01T14:14:00;38.80;18.80
26579;DHT22;14227;47.674;19.320;2022-07-01T14:16:25;38.80;18.50
26579;DHT22;14227;47.674;19.320;2022-07-01T14:18:55;38.80;17.60
26579;DHT22;14227;47.674;19.320;2022-07-01T14:21:21;38.80;18.20
26579;DHT22;14227;47.674;19.320;2022-07-01T14:23:47;38.90;18.00
26579;DHT22;14227;47.674;19.320;2022-07-01T14:26:13;38.90;16.90
26579;DHT22;14227;47.674;19.320;2022-07-01T14:28:38;38.90;17.10
26579;DHT22;14227;47.674;19.320;2022-07-01T14:31:08;38.90;17.00
26579;DHT22;14227;47.674;19.320;2022-07-01T14:33:34;38.90;16.30
26579;DHT22;14227;47.674;19.320;2022-07-01T14:36:00;38.90;16.60
26579;DHT22;14227;47.674;19.320;2022-07-01T14:38:28;38.90;16.30
26579;DHT22;14227;47.674;19.320;2022-07-01T14:40:54;39.00;16.90
26579;DHT22;14227;47.674;19.320;2022-07-01T14:43:20;39.00;16.30
26579;DHT22;14227;47.674;19.320;2022-07-01T14:45:46;39.00;16.40
26579;DHT22;14227;47.674;19.320;2022-07-01T14:48:12;39.10;15.70
26579;DHT22;14227;47.674;19.320;2022-07-01T14:50:42;39.10;16.30
26579;DHT22;14227;47.674;19.320;2022-07-01T14:53:08;39.10;15.70
26579;DHT22;14227;47.674;19.320;2022-07-01T14:55:34;39.20;16.20
26579;DHT22;14227;47.674;19.320;2022-07-01T14:58:00;39.20;15.80
26579;DHT22;14227;47.674;19.320;2022-07-01T15:00:26;39.20;15.10
26579;DHT22;14227;47.674;19.320;2022-07-01T15:02:52;39.10;15.20
26579;DHT22;14227;47.674;19.320;2022-07-01T15:05:21;39.10;15.40
26579;DHT22;14227;47.674;19.320;2022-07-01T15:07:47;39.10;16.30
26579;DHT22;14227;47.674;19.320;2022-07-01T15:10:13;39.20;16.30
26579;DHT22;14227;47.674;19.320;2022-07-01T15:12:39;39.20;16.60
26579;DHT22;14227;47.674;19.320;2022-07-01T15:15:05;39.30;15.80
26579;DHT22;14227;47.674;19.320;2022-07-01T15:17:31;39.30;15.80
26579;DHT22;14227;47.674;19.320;2022-07-01T15:19:57;39.30;15.80
26579;DHT22;14227;47.674;19.320;2022-07-01T15:22:22;39.20;16.00
26579;DHT22;14227;47.674;19.320;2022-07-01T15:24:48;39.30;15.80
26579;DHT22;14227;47.674;19.320;2022-07-01T15:27:14;39.30;15.80
26579;DHT22;14227;47.674;19.320;2022-07-01T15:29:39;39.30;15.80
26579;DHT22;14227;47.674;19.320;2022-07-01T15:32:06;39.30;15.80
26579;DHT22;14227;47.674;19.320;2022-07-01T15:34:31;39.30;15.80
26579;DHT22;14227;47.674;19.320;2022-07-01T15:36:57;39.30;15.80
26579;DHT22;14227;47.674;19.320;2022-07-01T15:39:23;39.40;16.50
26579;DHT22;14227;47.674;19.320;2022-07-01T15:41:49;39.30;15.80
26579;DHT22;14227;47.674;19.320;2022-07-01T15:44:15;39.30;15.80
26579;DHT22;14227;47.674;19.320;2022-07-01T15:46:40;39.30;15.60
26579;DHT22;14227;47.674;19.320;2022-07-01T15:49:06;39.30;15.50
26579;DHT22;14227;47.674;19.320;2022-07-01T15:51:33;39.30;15.20
26579;DHT22;14227;47.674;19.320;2022-07-01T15:54:00;39.30;15.70
26579;DHT22;14227;47.674;19.320;2022-07-01T15:56:27;39.30;15.50
26579;DHT22;14227;47.674;19.320;2022-07-01T15:58:53;39.30;15.80
26579;DHT22;14227;47.674;19.320;2022-07-01T16:01:18;39.30;15.30
26579;DHT22;14227;47.674;19.320;2022-07-01T16:03:46;39.30;15.80
26579;DHT22;14227;47.674;19.320;2022-07-01T16:06:14;39.30;15.80
26579;DHT22;14227;47.674;19.320;2022-07-01T16:08:46;39.30;15.80
26579;DHT22;14227;47.674;19.320;2022-07-01T16:11:14;39.30;15.80
26579;DHT22;14227;47.674;19.320;2022-07-01T16:13:51;39.30;15.80
26579;DHT22;14227;47.674;19.320;2022-07-01T16:16:31;39.30;15.80
26579;DHT22;14227;47.674;19.320;2022-07-01T16:18:57;39.30;15.80
26579;DHT22;14227;47.674;19.320;2022-07-01T16:21:23;39.30;16.40
26579;DHT22;14227;47.674;19.320;2022-07-01T16:23:50;39.30;15.80
26579;DHT22;14227;47.674;19.320;2022-07-01T16:26:19;39.40;15.90
26579;DHT22;14227;47.674;19.320;2022-07-01T16:28:47;39.40;15.90
26579;DHT22;14227;47.674;19.320;2022-07-01T16:31:15;39.30;15.80
26579;DHT22;14227;47.674;19.320;2022-07-01T16:33:40;39.40;15.90
26579;DHT22;14227;47.674;19.320;2022-07-01T16:36:17;39.40;15.90
26579;DHT22;14227;47.674;19.320;2022-07-01T16:39:00;39.40;15.90
26579;DHT22;14227;47.674;19.320;2022-07-01T16:41:31;39.30;15.80
26579;DHT22;14227;47.674;19.320;2022-07-01T16:44:10;39.30;16.00
26579;DHT22;14227;47.674;19.320;2022-07-01T16:46:41;39.30;16.10
26579;DHT22;14227;47.674;19.320;2022-07-01T16:49:26;39.30;15.80
26579;DHT22;14227;47.674;19.320;2022-07-01T16:51:56;39.30;15.80